createdAt,value
2019-06-07T00:00:39.376Z,11.37
2019-06-07T00:03:35.940Z,11.23
2019-06-07T00:06:40.327Z,11.27
2019-06-07T00:09:44.944Z,10.87
2019-06-07T00:12:49.332Z,11.07
2019-06-07T00:15:53.762Z,10.53
2019-06-07T00:18:58.019Z,10.87
2019-06-07T00:22:30.097Z,10.77
2019-06-07T00:25:12.181Z,11.77
2019-06-07T00:28:17.363Z,11.33
2019-06-07T00:31:24.050Z,10.87
2019-06-07T00:34:26.823Z,10.77
2019-06-07T00:37:31.118Z,11.00
2019-06-07T00:40:35.511Z,10.90
2019-06-07T00:43:39.878Z,11.27
2019-06-07T00:46:44.187Z,11.03
2019-06-07T00:49:48.544Z,9.73
2019-06-07T00:53:14.631Z,10.40
2019-06-07T00:55:58.844Z,11.07
2019-06-07T00:59:11.179Z,10.63
2019-06-07T01:02:09.177Z,10.43
2019-06-07T01:05:15.941Z,10.70
2019-06-07T01:08:22.780Z,11.10
2019-06-07T01:11:26.241Z,11.07
2019-06-07T01:14:30.691Z,10.50
2019-06-07T01:17:49.716Z,11.10
2019-06-07T01:20:41.023Z,10.87
2019-06-07T01:24:08.873Z,11.10
2019-06-07T01:26:51.463Z,10.77
2019-06-07T01:29:55.737Z,10.50
2019-06-07T01:33:00.198Z,11.27
2019-06-07T01:36:04.601Z,11.93
2019-06-07T01:39:08.874Z,10.57
2019-06-07T01:42:13.291Z,11.77
2019-06-07T01:45:19.514Z,11.87
2019-06-07T01:48:29.545Z,12.07
2019-06-07T01:51:30.775Z,12.37
2019-06-07T01:54:56.615Z,12.43
2019-06-07T01:57:48.061Z,12.73
2019-06-07T02:00:46.761Z,12.77
2019-06-07T02:03:50.675Z,12.67
2019-06-07T02:06:54.807Z,13.07
2019-06-07T02:09:58.664Z,11.93
2019-06-07T02:13:02.812Z,13.33
2019-06-07T02:16:07.094Z,13.50
2019-06-07T02:19:11.118Z,13.53
2019-06-07T02:22:15.094Z,12.93
2019-06-07T02:28:38.330Z,12.90
2019-06-07T02:31:36.991Z,13.63
2019-06-07T02:34:39.328Z,12.90
2019-06-07T02:37:41.358Z,12.73
2019-06-07T02:40:45.700Z,12.73
2019-06-07T02:43:50.064Z,12.57
2019-06-07T02:46:54.418Z,13.37
2019-06-07T02:49:58.805Z,13.33
2019-06-07T02:53:03.176Z,13.13
2019-06-07T02:59:13.565Z,14.43
2019-06-07T03:02:18.022Z,12.93
2019-06-07T03:05:22.357Z,13.27
2019-06-07T03:08:30.950Z,13.27
2019-06-07T03:11:38.706Z,13.53
2019-06-07T03:14:43.807Z,12.97
2019-06-07T03:18:00.474Z,12.90
2019-06-07T03:21:06.029Z,13.03
2019-06-07T03:24:10.350Z,12.93
2019-06-07T03:27:36.217Z,12.47
2019-06-07T03:30:57.134Z,13.63
2019-06-07T03:33:29.372Z,12.90
2019-06-07T03:36:35.338Z,12.87
2019-06-07T03:39:41.183Z,13.57
2019-06-07T03:42:45.765Z,12.70
2019-06-07T03:45:50.137Z,13.03
2019-06-07T03:48:54.443Z,12.53
2019-06-07T03:51:58.909Z,12.57
2019-06-07T03:55:04.407Z,13.13
2019-06-07T04:01:14.739Z,13.07
2019-06-07T04:04:19.148Z,12.73
2019-06-07T04:07:23.519Z,12.63
2019-06-07T04:10:48.529Z,12.60
2019-06-07T04:13:36.743Z,12.20
2019-06-07T04:16:44.032Z,13.40
2019-06-07T04:19:46.043Z,12.53
2019-06-07T04:22:50.391Z,12.10
2019-06-07T04:25:54.876Z,13.33
2019-06-07T04:32:05.989Z,14.43
2019-06-07T04:35:10.407Z,13.53
2019-06-07T04:38:15.311Z,13.67
2019-06-07T04:41:22.611Z,13.70
2019-06-07T04:44:26.955Z,14.27
2019-06-07T04:47:33.764Z,14.10
2019-06-07T04:50:43.480Z,14.37
2019-06-07T04:53:44.715Z,13.83
2019-06-07T04:56:49.032Z,14.33
2019-06-07T05:00:11.760Z,13.43
2019-06-07T05:02:59.711Z,14.27
2019-06-07T05:06:04.083Z,13.47
2019-06-07T05:09:08.481Z,13.27
2019-06-07T05:12:12.888Z,13.20
2019-06-07T05:15:17.622Z,13.43
2019-06-07T05:18:22.046Z,13.77
2019-06-07T05:21:46.413Z,13.53
2019-06-07T05:24:35.597Z,12.93
2019-06-07T05:27:42.395Z,13.67
2019-06-07T05:31:03.423Z,12.57
2019-06-07T05:33:50.849Z,12.90
2019-06-07T05:37:11.037Z,13.60
2019-06-07T05:40:01.385Z,14.27
2019-06-07T05:43:06.143Z,13.53
2019-06-07T05:46:10.503Z,13.87
2019-06-07T05:49:14.963Z,13.60
2019-06-07T05:52:19.227Z,13.13
2019-06-07T05:55:23.597Z,13.83
2019-06-07T05:58:27.866Z,13.63
2019-06-07T06:01:57.406Z,13.43
2019-06-07T06:04:40.246Z,13.80
2019-06-07T06:07:49.569Z,13.43
2019-06-07T06:10:50.318Z,13.53
2019-06-07T06:14:06.769Z,13.93
2019-06-07T06:17:00.825Z,13.27
2019-06-07T06:20:05.859Z,13.47
2019-06-07T06:23:10.160Z,12.83
2019-06-07T06:26:14.483Z,14.27
2019-06-07T06:29:18.958Z,13.50
2019-06-07T06:32:42.177Z,12.37
2019-06-07T06:35:29.400Z,12.53
2019-06-07T06:38:33.834Z,13.20
2019-06-07T06:41:49.435Z,12.13
2019-06-07T06:44:46.415Z,12.27
2019-06-07T06:47:50.729Z,12.47
2019-06-07T06:50:55.207Z,12.17
2019-06-07T06:53:59.431Z,11.77
2019-06-07T06:57:19.194Z,12.00
2019-06-07T07:00:10.302Z,12.77
2019-06-07T07:06:26.424Z,12.53
2019-06-07T07:09:29.929Z,12.87
2019-06-07T07:12:34.395Z,12.60
2019-06-07T07:15:38.827Z,12.60
2019-06-07T07:18:44.281Z,11.30
2019-06-07T07:21:50.609Z,12.13
2019-06-07T07:24:57.844Z,12.50
2019-06-07T07:28:02.375Z,12.97
2019-06-07T07:31:06.765Z,12.93
2019-06-07T07:34:32.096Z,12.80
2019-06-07T07:37:18.689Z,12.77
2019-06-07T07:40:56.173Z,13.30
2019-06-07T07:43:29.138Z,13.97
2019-06-07T07:46:33.652Z,14.00
2019-06-07T07:49:40.374Z,13.83
2019-06-07T07:52:45.944Z,13.87
2019-06-07T07:55:54.949Z,13.33
2019-06-07T07:59:02.094Z,13.37
2019-06-07T08:02:03.216Z,12.90
2019-06-07T08:05:23.348Z,14.00
2019-06-07T08:08:14.292Z,14.37
2019-06-07T08:11:18.734Z,14.00
2019-06-07T08:14:23.083Z,13.83
2019-06-07T08:17:27.502Z,12.70
2019-06-07T08:20:31.925Z,12.23
2019-06-07T08:23:36.385Z,12.73
2019-06-07T08:26:40.845Z,13.17
2019-06-07T08:30:00.924Z,12.60
2019-06-07T08:32:55.134Z,11.57
2019-06-07T08:36:11.559Z,11.50
2019-06-07T08:39:07.570Z,11.97
2019-06-07T08:42:17.912Z,10.50
2019-06-07T08:45:20.640Z,10.80
2019-06-07T08:48:30.248Z,9.80
2019-06-07T08:51:31.114Z,9.93
2019-06-07T08:54:35.658Z,9.67
2019-06-07T08:57:40.097Z,9.63
2019-06-07T09:00:47.041Z,9.03
2019-06-07T09:03:52.078Z,8.90
2019-06-07T09:07:18.360Z,9.77
2019-06-07T09:10:09.419Z,9.93
2019-06-07T09:13:11.618Z,8.97
2019-06-07T09:16:15.109Z,9.90
2019-06-07T09:19:19.580Z,9.37
2019-06-07T09:22:23.946Z,9.10
2019-06-07T09:25:28.413Z,9.97
2019-06-07T09:28:33.448Z,9.90
2019-06-07T09:31:52.193Z,9.60
2019-06-07T09:34:44.297Z,10.33
2019-06-07T09:38:07.808Z,9.90
2019-06-07T09:40:54.723Z,9.67
2019-06-07T09:44:09.942Z,9.77
2019-06-07T09:47:22.237Z,10.30
2019-06-07T09:50:12.439Z,9.57
2019-06-07T09:53:22.808Z,10.10
2019-06-07T09:56:23.156Z,8.70
2019-06-07T09:59:28.274Z,9.20
2019-06-07T10:02:32.818Z,8.07
2019-06-07T10:05:37.326Z,8.07
2019-06-07T10:11:51.861Z,7.63
2019-06-07T10:14:58.597Z,7.70
2019-06-07T10:18:03.088Z,6.37
2019-06-07T10:21:08.343Z,6.97
2019-06-07T10:24:13.487Z,6.60
2019-06-07T10:27:18.224Z,6.17
2019-06-07T10:30:22.971Z,5.80
2019-06-07T10:33:27.378Z,6.03
2019-06-07T10:36:31.712Z,5.77
2019-06-07T10:39:48.097Z,6.17
2019-06-07T10:42:42.132Z,6.50
2019-06-07T10:45:46.617Z,6.20
2019-06-07T10:48:50.995Z,6.10
2019-06-07T10:51:55.433Z,5.87
2019-06-07T10:55:00.254Z,5.90
2019-06-07T10:58:04.896Z,6.13
2019-06-07T11:01:09.401Z,5.77
2019-06-07T11:04:13.946Z,6.23
2019-06-07T11:07:18.327Z,6.87
2019-06-07T11:10:23.203Z,6.77
2019-06-07T11:13:27.584Z,7.27
2019-06-07T11:16:32.003Z,7.97
2019-06-07T11:19:36.382Z,7.50
2019-06-07T11:22:40.785Z,7.43
2019-06-07T11:25:45.243Z,7.53
2019-06-07T11:28:49.607Z,8.20
2019-06-07T11:31:54.259Z,6.73
2019-06-07T11:34:58.834Z,7.73
2019-06-07T11:38:03.265Z,7.87
2019-06-07T11:41:07.676Z,7.70
2019-06-07T11:44:12.981Z,7.67
2019-06-07T11:47:18.440Z,7.77
2019-06-07T11:50:23.065Z,8.07
2019-06-07T11:53:27.589Z,7.57
2019-06-07T11:56:32.030Z,8.70
2019-06-07T11:59:36.479Z,8.70
2019-06-07T12:02:40.861Z,7.80
2019-06-07T12:05:45.339Z,6.90
2019-06-07T12:08:49.770Z,7.97
2019-06-07T12:11:54.689Z,8.00
2019-06-07T12:15:01.059Z,7.77
2019-06-07T12:18:05.830Z,8.20
2019-06-07T12:21:11.451Z,7.30
2019-06-07T12:24:16.248Z,7.40
2019-06-07T12:27:21.106Z,7.50
2019-06-07T12:30:27.974Z,7.40
2019-06-07T12:33:31.534Z,7.83
2019-06-07T12:36:38.979Z,6.77
2019-06-07T12:39:43.523Z,7.30
2019-06-07T12:42:47.975Z,7.20
2019-06-07T12:45:52.518Z,7.57
2019-06-07T12:48:57.022Z,7.10
2019-06-07T12:52:01.418Z,7.00
2019-06-07T12:55:06.989Z,7.67
2019-06-07T12:58:11.346Z,8.00
2019-06-07T13:01:15.984Z,8.50
2019-06-07T13:04:24.990Z,8.20
2019-06-07T13:07:29.954Z,8.27
2019-06-07T13:10:34.347Z,7.67
2019-06-07T13:13:38.804Z,8.50
2019-06-07T13:16:43.271Z,7.77
2019-06-07T13:19:47.704Z,7.43
2019-06-07T13:22:52.111Z,7.60
2019-06-07T13:25:56.568Z,7.67
2019-06-07T13:29:02.789Z,7.70
2019-06-07T13:32:07.298Z,7.90
2019-06-07T13:35:12.224Z,8.00
2019-06-07T13:38:26.335Z,7.83
2019-06-07T13:41:41.942Z,7.67
2019-06-07T13:44:36.880Z,7.43
2019-06-07T13:47:41.436Z,7.50
2019-06-07T13:50:45.984Z,7.90
2019-06-07T13:53:50.459Z,7.47
2019-06-07T13:57:01.937Z,7.80
2019-06-07T14:00:10.223Z,6.60
2019-06-07T14:03:08.543Z,7.73
2019-06-07T14:06:13.073Z,7.37
2019-06-07T14:09:19.228Z,6.93
2019-06-07T14:12:24.171Z,7.40
2019-06-07T14:15:31.438Z,7.57
2019-06-07T14:18:34.615Z,7.30
2019-06-07T14:21:39.033Z,7.23
2019-06-07T14:24:43.441Z,7.23
2019-06-07T14:27:47.949Z,7.50
2019-06-07T14:30:52.350Z,8.00
2019-06-07T14:33:56.773Z,8.13
2019-06-07T14:37:01.304Z,7.27
2019-06-07T14:40:07.893Z,7.43
2019-06-07T14:43:12.256Z,7.17
2019-06-07T14:46:17.976Z,7.63
2019-06-07T14:49:24.102Z,6.67
2019-06-07T14:52:28.759Z,7.23
2019-06-07T14:55:33.107Z,6.53
2019-06-07T14:58:42.794Z,6.90
2019-06-07T15:01:43.606Z,7.40
2019-06-07T15:04:48.674Z,6.50
2019-06-07T15:07:53.024Z,6.53
2019-06-07T15:10:57.472Z,7.10
2019-06-07T15:14:03.138Z,7.10
2019-06-07T15:17:09.161Z,6.63
2019-06-07T15:20:13.936Z,7.63
2019-06-07T15:23:18.400Z,6.83
2019-06-07T15:26:22.991Z,7.57
2019-06-07T15:29:27.534Z,7.20
2019-06-07T15:32:35.212Z,6.60
2019-06-07T15:35:40.506Z,6.63
2019-06-07T15:38:46.120Z,6.40
2019-06-07T15:41:50.628Z,7.27
2019-06-07T15:44:55.955Z,7.13
2019-06-07T15:48:00.725Z,6.93
2019-06-07T15:51:05.217Z,7.30
2019-06-07T15:54:09.751Z,7.03
2019-06-07T15:57:14.288Z,7.33
2019-06-07T16:00:20.975Z,7.10
2019-06-07T16:03:25.719Z,7.60
2019-06-07T16:06:31.913Z,7.20
2019-06-07T16:09:36.700Z,7.20
2019-06-07T16:12:57.632Z,7.70
2019-06-07T16:15:48.194Z,7.40
2019-06-07T16:18:52.645Z,7.90
2019-06-07T16:21:57.067Z,7.93
2019-06-07T16:25:01.613Z,7.93
2019-06-07T16:28:07.965Z,7.87
2019-06-07T16:31:12.248Z,8.80
2019-06-07T16:34:16.678Z,7.83
2019-06-07T16:37:21.104Z,8.33
2019-06-07T16:40:25.545Z,8.37
2019-06-07T16:43:30.114Z,7.80
2019-06-07T16:46:34.728Z,8.47
2019-06-07T16:49:39.222Z,8.33
2019-06-07T16:52:46.466Z,9.13
2019-06-07T16:55:51.106Z,9.17
2019-06-07T16:58:55.501Z,8.87
2019-06-07T17:01:59.974Z,9.17
2019-06-07T17:05:05.311Z,8.30
2019-06-07T17:08:09.811Z,8.20
2019-06-07T17:11:14.402Z,8.10
2019-06-07T17:14:18.875Z,8.93
2019-06-07T17:17:23.311Z,8.50
2019-06-07T17:20:27.877Z,7.37
2019-06-07T17:23:32.799Z,7.57
2019-06-07T17:26:37.377Z,8.43
2019-06-07T17:29:42.028Z,7.70
2019-06-07T17:32:54.929Z,8.23
2019-06-07T17:35:52.857Z,8.20
2019-06-07T17:38:57.464Z,8.30
2019-06-07T17:42:02.628Z,7.73
2019-06-07T17:45:08.669Z,7.73
2019-06-07T17:48:14.982Z,8.03
2019-06-07T17:51:19.567Z,8.37
2019-06-07T17:54:24.073Z,8.87
2019-06-07T17:57:28.665Z,10.00
2019-06-07T18:00:47.086Z,11.00
2019-06-07T18:03:52.969Z,11.13
2019-06-07T18:06:58.255Z,14.53
2019-06-07T18:10:03.756Z,19.73
2019-06-07T18:13:08.482Z,26.80
2019-06-07T18:16:13.260Z,28.87
2019-06-07T18:19:18.907Z,25.93
2019-06-07T18:22:23.672Z,27.87
2019-06-07T18:25:28.603Z,26.73
2019-06-07T18:28:33.129Z,26.80
2019-06-07T18:31:38.854Z,25.10
2019-06-07T18:34:43.395Z,24.40
2019-06-07T18:37:48.949Z,23.27
2019-06-07T18:40:57.249Z,21.70
2019-06-07T18:44:01.971Z,19.87
2019-06-07T18:47:06.797Z,18.60
2019-06-07T18:50:11.828Z,17.57
2019-06-07T18:53:16.566Z,17.90
2019-06-07T18:56:21.887Z,16.10
2019-06-07T18:59:26.953Z,15.63
2019-06-07T19:02:31.387Z,15.43
2019-06-07T19:05:36.483Z,14.47
2019-06-07T19:08:42.718Z,14.43
2019-06-07T19:11:49.111Z,14.87
2019-06-07T19:14:53.834Z,14.47
2019-06-07T19:17:58.317Z,15.37
2019-06-07T19:21:03.109Z,14.53
2019-06-07T19:24:08.650Z,15.93
2019-06-07T19:27:14.259Z,15.80
2019-06-07T19:30:23.853Z,17.00
2019-06-07T19:33:30.356Z,17.40
2019-06-07T19:36:47.960Z,20.37
2019-06-07T19:39:42.170Z,24.33
2019-06-07T19:42:46.664Z,29.00
2019-06-07T19:45:52.016Z,33.40
2019-06-07T19:48:58.633Z,34.30
2019-06-07T19:52:03.269Z,34.80
2019-06-07T19:55:09.867Z,34.53
2019-06-07T19:58:17.858Z,36.17
2019-06-07T20:01:22.526Z,34.93
2019-06-07T20:04:26.926Z,33.77
2019-06-07T20:07:31.346Z,32.37
2019-06-07T20:10:35.910Z,31.10
2019-06-07T20:13:40.687Z,28.73
2019-06-07T20:16:45.223Z,27.90
2019-06-07T20:19:49.923Z,25.30
2019-06-07T20:22:54.390Z,23.50
2019-06-07T20:26:00.122Z,21.90
2019-06-07T20:29:05.709Z,21.23
2019-06-07T20:32:10.234Z,20.67
2019-06-07T20:35:14.888Z,18.43
2019-06-07T20:38:19.522Z,17.67
2019-06-07T20:41:24.061Z,18.00
2019-06-07T20:44:28.648Z,17.03
2019-06-07T20:47:33.088Z,16.67
2019-06-07T20:50:37.610Z,15.57
2019-06-07T20:53:42.163Z,15.63
2019-06-07T20:56:46.614Z,15.50
2019-06-07T20:59:50.973Z,15.23
2019-06-07T21:02:56.634Z,16.07
2019-06-07T21:06:01.391Z,16.30
2019-06-07T21:09:07.734Z,16.40
2019-06-07T21:12:12.132Z,16.37
2019-06-07T21:15:16.759Z,15.90
2019-06-07T21:18:21.163Z,17.80
2019-06-07T21:21:25.574Z,16.80
2019-06-07T21:24:29.937Z,16.70
2019-06-07T21:27:34.373Z,16.00
2019-06-07T21:30:38.752Z,17.03
2019-06-07T21:33:43.501Z,16.17
2019-06-07T21:36:47.849Z,17.47
2019-06-07T21:39:52.162Z,16.70
2019-06-07T21:42:56.450Z,16.80
2019-06-07T21:46:05.518Z,18.17
2019-06-07T21:49:08.353Z,16.87
2019-06-07T21:52:12.988Z,18.03
2019-06-07T21:55:17.451Z,17.33
2019-06-07T21:58:22.117Z,17.77
2019-06-07T22:01:30.943Z,17.63
2019-06-07T22:04:35.272Z,17.13
2019-06-07T22:07:39.703Z,17.10
2019-06-07T22:10:44.039Z,17.77
2019-06-07T22:13:48.492Z,18.07
2019-06-07T22:16:52.898Z,17.77
2019-06-07T22:19:57.275Z,17.27
2019-06-07T22:23:01.676Z,18.07
2019-06-07T22:26:07.086Z,17.77
2019-06-07T22:29:12.376Z,17.07
2019-06-07T22:32:16.873Z,17.43
2019-06-07T22:35:21.184Z,16.57
2019-06-07T22:38:25.465Z,16.70
2019-06-07T22:41:30.701Z,15.93
2019-06-07T22:44:35.168Z,17.10
2019-06-07T22:47:39.524Z,17.17
2019-06-07T22:50:43.957Z,17.67
2019-06-07T22:53:48.336Z,17.47
2019-06-07T22:57:03.465Z,17.40
2019-06-07T23:00:10.193Z,17.40
2019-06-07T23:03:14.992Z,17.90
2019-06-07T23:06:19.441Z,17.93
2019-06-07T23:09:23.739Z,17.07
2019-06-07T23:12:28.148Z,16.83
2019-06-07T23:15:32.481Z,17.67
2019-06-07T23:18:37.204Z,17.67
2019-06-07T23:21:41.575Z,18.30
2019-06-07T23:24:45.979Z,18.07
2019-06-07T23:27:50.276Z,18.77
2019-06-07T23:30:54.652Z,20.43
2019-06-07T23:33:58.925Z,19.93
2019-06-07T23:37:03.359Z,20.27
2019-06-07T23:40:08.188Z,20.07
2019-06-07T23:43:13.427Z,18.87
2019-06-07T23:46:17.817Z,19.57
2019-06-07T23:49:22.582Z,20.70
2019-06-07T23:52:27.142Z,20.13
2019-06-07T23:55:31.569Z,20.73
2019-06-07T23:58:35.795Z,21.20
